Terminal Aerodrome Forecast
Issued by NWS Cleveland, OH

Home | Current Version | Previous Version | Text Only | Print | Product List | Glossary Off
Versions: 1 2 3 4 5 6 7 8 9 10 11 12 13 14 15 16 17 18 19 20 21 22 23 24 25 26 27 28 29 30 31

626
FTUS41 KCLE 182321
TAFTOL
TAF
KTOL 182321Z 1900/1924 06007KT P6SM VCSH BKN060
     FM190600 06004KT 6SM BR SCT025 OVC035
     FM190900 07004KT 3SM BR OVC025
     FM191300 08004KT 5SM BR BKN025 OVC035
     FM191400 10004KT P6SM BKN035
     FM191800 15004KT P6SM SCT025 BKN060=

USA.gov is the U.S. government's official web portal to all federal, state and local government web resources and services.